Latest Weather Observations for Deniliquin

IDN60801

Issued at 4:02 pm EST Sunday 26 April 2015 (issued every 30 minutes, with the page automatically refreshed every 10 minutes)

About weather observations | Map of weather stations | Latest weather observations for NSW | Other Formats
Station Details ID: 074258 Name: DENILIQUIN AIRPORT AWS Lat: -35.56 Lon: 144.95 Height: 94.0 m
Data from the previous 72 hours. | See also: Recent months at Deniliquin
Date/Time
EST
Temp
°C
App
Temp
°C
Dew
Point
Rel
Hum
%
Delta-T
°C
Wind Press
QNH
hPa
Press
MSL
hPa
Rain
since 9 am
mm
Dir
 
Spd
km/h
Gust
km/h
Spd
kts
Gust
kts
26/04:00pm 16.3 9.8 4.7 46 5.5 SW 28 35 15 19 1018.4 1018.3 0.0
26/03:30pm 15.8 9.4 5.1 49 5.1 SW 28 37 15 20 1018.2 1018.0 0.0
26/03:00pm 16.1 8.8 4.5 46 5.5 SW 32 41 17 22 1018.1 1017.9 0.0
26/02:30pm 15.8 9.1 5.4 50 5.0 SW 30 43 16 23 1017.9 1017.7 0.0
26/02:00pm 15.3 8.2 5.5 52 4.7 SW 32 41 17 22 1017.8 1017.6 0.0
26/01:30pm 15.4 8.3 5.6 52 4.7 SW 32 43 17 23 1018.0 1017.8 0.0
26/01:06pm 14.8 8.5 5.6 54 4.4 SW 28 46 15 25 1018.0 1017.8 0.0
26/01:00pm 14.5 7.4 5.6 55 4.2 SW 32 41 17 22 1018.0 1017.8 0.0
26/12:30pm 14.4 7.4 6.0 57 4.0 SW 32 37 17 20 1018.2 1018.0 0.0
26/12:00pm 14.3 7.3 5.9 57 4.0 SW 32 41 17 22 1018.3 1018.1 0.0
26/11:30am 15.4 8.4 6.9 57 4.2 SSW 33 43 18 23 1018.3 1018.1 0.0
26/11:00am 13.6 6.5 6.2 61 3.5 SSW 33 43 18 23 1018.3 1018.1 0.0
26/10:30am 13.3 6.2 6.2 62 3.4 SSW 33 46 18 25 1018.2 1018.0 0.0
26/10:00am 13.3 5.5 6.6 64 3.2 SW 37 44 20 24 1018.1 1017.9 0.0
26/09:30am 12.5 5.6 6.5 67 2.9 SW 32 43 17 23 1017.9 1017.7 0.0
26/09:00am 11.4 4.6 7.1 75 2.1 SW 32 39 17 21 1017.8 1017.6 0.0
26/08:30am 10.3 4.2 6.8 79 1.7 SW 28 33 15 18 1017.5 1017.3 0.0
26/08:00am 9.3 3.6 6.7 84 1.2 SW 26 32 14 17 1017.0 1016.8 0.0
26/07:30am 8.2 2.8 6.2 87 0.9 SW 24 28 13 15 1016.5 1016.3 0.0
26/07:00am 8.0 2.1 6.0 87 0.9 SW 26 32 14 17 1015.9 1015.7 0.0
26/06:30am 7.9 2.8 5.9 87 0.9 SW 22 30 12 16 1015.6 1015.4 0.0
26/06:00am 8.0 2.9 5.8 86 1.0 SW 22 28 12 15 1015.0 1014.9 0.0
26/05:30am 8.2 3.5 6.2 87 0.9 SW 20 24 11 13 1015.0 1014.9 0.0
26/05:00am 8.4 4.0 6.4 87 0.9 SW 19 24 10 13 1014.7 1014.6 0.0
26/04:30am 8.7 3.8 6.8 88 0.9 SW 22 28 12 15 1014.4 1014.3 0.0
26/04:00am 8.7 4.3 7.3 91 0.7 WSW 20 28 11 15 1014.1 1014.0 0.0
26/03:30am 8.9 4.1 7.4 90 0.7 SW 22 28 12 15 1013.8 1013.7 0.0
26/03:00am 9.3 3.8 7.7 90 0.8 SW 26 32 14 17 1013.8 1013.7 0.0
26/02:30am 9.6 4.7 8.4 92 0.6 SW 24 33 13 18 1013.7 1013.6 0.0
26/02:00am 10.0 4.1 8.9 93 0.5 SW 30 35 16 19 1013.6 1013.5 0.0
26/01:30am 10.4 5.0 9.6 95 0.4 SW 28 35 15 19 1013.5 1013.4 0.0
26/01:00am 10.5 6.9 10.5 100 0.0 SW 20 28 11 15 1013.3 1013.2 0.0
26/12:30am 10.1 6.9 9.9 99 0.1 SW 17 20 9 11 1013.0 1012.9 0.0
26/12:00am 9.5 6.5 9.2 98 0.1 WSW 15 17 8 9 1013.0 1012.9 0.0
 
Date/Time
EST
Temp
°C
App
Temp
°C
Dew
Point
Rel
Hum
%
Delta-T
°C
Wind Press
QNH
hPa
Press
MSL
hPa
Rain
since 9 am
mm
Dir
 
Spd
km/h
Gust
km/h
Spd
kts
Gust
kts
25/11:30pm 9.2 6.5 9.1 99 0.0 WSW 13 13 7 7 1012.8 1012.7 0.0
25/11:00pm 9.2 6.8 8.7 97 0.2 WSW 11 11 6 6 1012.7 1012.6 0.0
25/10:30pm 10.0 7.5 9.7 98 0.2 SW 13 17 7 9 1012.5 1012.4 0.0
25/10:00pm 9.8 7.6 9.2 96 0.3 SW 11 13 6 7 1012.2 1012.1 0.0
25/09:30pm 9.7 7.0 8.9 95 0.4 WSW 13 15 7 8 1011.9 1011.8 0.0
25/09:00pm 9.4 6.4 7.8 90 0.8 SW 13 15 7 8 1011.5 1011.4 0.0
25/08:30pm 10.6 7.4 8.4 86 1.1 WSW 15 17 8 9 1011.3 1011.2 0.0
25/08:00pm 11.0 7.3 7.9 81 1.5 W 17 20 9 11 1011.0 1010.9 0.0
25/07:30pm 11.4 7.7 7.9 79 1.7 W 17 20 9 11 1010.7 1010.6 0.0
25/07:00pm 11.4 8.0 7.7 78 1.8 W 15 19 8 10 1010.4 1010.3 0.0
25/06:30pm 12.2 9.1 7.3 72 2.4 W 13 17 7 9 1010.4 1010.3 0.0
25/06:00pm 12.6 9.5 7.3 70 2.6 W 13 15 7 8 1009.9 1009.8 0.0
25/05:30pm 13.5 9.5 6.6 63 3.3 W 17 20 9 11 1009.4 1009.3 0.0
25/05:00pm 14.4 9.9 6.0 57 4.0 WSW 19 24 10 13 1009.0 1008.8 0.0
25/04:30pm 15.1 10.7 6.7 57 4.1 W 19 26 10 14 1008.6 1008.4 0.0
25/04:00pm 15.2 10.6 6.5 56 4.3 W 20 24 11 13 1008.3 1008.1 0.0
25/03:30pm 14.9 10.4 7.0 59 3.9 W 20 28 11 15 1008.2 1008.0 0.0
25/03:00pm 15.2 10.6 6.7 57 4.2 W 20 26 11 14 1008.0 1007.8 0.0
25/02:30pm 15.0 11.0 6.8 58 4.0 W 17 20 9 11 1007.9 1007.7 0.0
25/02:00pm 14.7 11.9 7.0 60 3.8 W 11 15 6 8 1007.7 1007.5 0.0
25/01:30pm 14.5 11.1 7.8 64 3.3 WSW 15 20 8 11 1007.6 1007.4 0.0
25/01:00pm 14.7 11.7 7.7 63 3.5 SSW 13 17 7 9 1007.9 1007.7 0.0
25/12:30pm 14.3 10.7 8.5 68 2.9 SSW 17 22 9 12 1008.0 1007.8 0.0
25/12:00pm 14.1 11.5 7.9 66 3.1 SW 11 15 6 8 1008.2 1008.0 0.0
25/11:30am 13.7 11.2 8.1 69 2.8 WSW 11 15 6 8 1008.5 1008.3 0.0
25/11:00am 13.9 11.9 8.7 71 2.6 W 9 17 5 9 1008.5 1008.3 0.0
25/10:30am 13.3 11.7 8.2 71 2.5 SW 6 9 3 5 1008.5 1008.3 0.0
25/10:00am 12.5 11.2 9.1 80 1.7 WSW 6 9 3 5 1008.4 1008.2 0.0
25/09:30am 11.9 9.0 9.6 86 1.2 WSW 15 19 8 10 1008.4 1008.2 0.0
25/09:00am 12.3 10.4 10.4 88 1.0 WSW 11 17 6 9 1008.2 1008.0 2.8
25/08:30am 11.9 9.6 10.6 92 0.7 W 13 17 7 9 1008.1 1007.9 2.8
25/08:00am 10.8 9.3 10.6 99 0.1 WNW 9 11 5 6 1007.8 1007.6 2.8
25/07:30am 10.4 8.9 10.4 100 0.0 W 9 11 5 6 1007.5 1007.3 2.8
25/07:00am 10.3 9.1 10.3 100 0.0 WSW 7 11 4 6 1007.0 1006.8 2.8
25/06:30am 10.4 9.2 10.4 100 0.0 WNW 7 9 4 5 1007.2 1007.0 2.8
25/06:00am 9.8 8.0 9.5 98 0.2 WNW 9 11 5 6 1006.7 1006.5 2.8
25/05:30am 10.2 8.8 9.6 96 0.3 WNW 7 9 4 5 1006.7 1006.5 2.8
25/05:00am 10.5 9.1 9.7 95 0.4 W 7 13 4 7 1006.5 1006.3 2.8
25/04:30am 10.9 9.9 10.3 96 0.3 N 6 11 3 6 1006.4 1006.2 2.8
25/04:00am 10.9 10.2 10.1 95 0.4 E 4 7 2 4 1006.6 1006.4 2.4
25/03:30am 10.8 10.1 10.0 95 0.4 SSW 4 7 2 4 1006.3 1006.1 2.4
25/03:00am 10.8 9.4 9.7 93 0.6 WSW 7 9 4 5 1006.6 1006.4 2.4
25/02:30am 10.8 9.4 9.7 93 0.6 W 7 9 4 5 1007.1 1006.9 2.4
25/02:00am 11.0 9.4 10.2 95 0.4 WNW 9 15 5 8 1007.4 1007.2 2.4
25/01:30am 11.4 8.6 10.1 92 0.7 WNW 15 24 8 13 1007.6 1007.4 2.0
25/01:00am 11.0 9.8 9.4 90 0.8 SW 6 9 3 5 1006.7 1006.5 0.0
25/12:30am 11.0 8.8 9.4 90 0.8 WSW 11 13 6 7 1007.3 1007.1 0.0
25/12:00am 12.0 9.5 9.6 85 1.2 WSW 13 17 7 9 1007.4 1007.2 0.0
 
Date/Time
EST
Temp
°C
App
Temp
°C
Dew
Point
Rel
Hum
%
Delta-T
°C
Wind Press
QNH
hPa
Press
MSL
hPa
Rain
since 9 am
mm
Dir
 
Spd
km/h
Gust
km/h
Spd
kts
Gust
kts
24/11:30pm 12.8 9.6 9.8 82 1.5 WSW 17 20 9 11 1007.6 1007.4 0.0
24/11:00pm 13.2 9.4 9.8 80 1.8 WSW 20 24 11 13 1007.6 1007.4 0.0
24/10:30pm 13.8 9.6 9.8 77 2.1 WSW 22 26 12 14 1007.5 1007.3 0.0
24/10:00pm 14.7 11.2 10.1 74 2.4 WNW 19 37 10 20 1007.2 1007.0 0.0
24/09:30pm 13.5 11.8 9.9 79 1.9 NNE 9 11 5 6 1006.7 1006.5 0.0
24/09:00pm 13.9 12.2 9.9 77 2.1 NNE 9 11 5 6 1006.7 1006.5 0.0
24/08:30pm 14.0 12.6 9.6 75 2.3 NE 7 9 4 5 1006.7 1006.5 0.0
24/08:00pm 15.6 14.3 9.9 69 3.0 N 7 9 4 5 1006.8 1006.6 0.0
24/07:30pm 15.4 13.8 10.2 71 2.7 NNE 9 11 5 6 1006.7 1006.5 0.0
24/07:00pm 15.9 14.7 10.2 69 3.0 N 7 9 4 5 1006.6 1006.4 0.0
24/06:30pm 15.3 14.1 9.4 68 3.1 N 6 7 3 4 1006.6 1006.4 0.0
24/06:00pm 15.8 14.3 9.0 64 3.5 N 7 9 4 5 1006.1 1005.9 0.0
24/05:30pm 17.1 14.4 8.8 58 4.3 NW 13 15 7 8 1005.9 1005.7 0.0
24/05:00pm 18.1 15.5 9.2 56 4.7 NW 13 17 7 9 1005.8 1005.6 0.0
24/04:30pm 18.2 16.0 9.3 56 4.7 NW 11 15 6 8 1005.8 1005.6 0.0
24/04:00pm 18.2 14.3 8.7 54 5.0 WNW 19 24 10 13 1005.8 1005.6 0.0
24/03:30pm 18.1 14.3 8.9 55 4.8 WNW 19 24 10 13 1005.8 1005.6 0.0
24/03:00pm 17.9 14.7 9.8 59 4.3 W 17 20 9 11 1005.7 1005.5 0.0
24/02:30pm 17.1 13.9 10.0 63 3.8 W 17 26 9 14 1006.0 1005.8 0.0
24/02:00pm 17.6 13.9 10.0 61 4.1 WNW 20 28 11 15 1005.9 1005.7 0.0
24/01:30pm 17.0 13.4 10.4 65 3.5 WNW 20 28 11 15 1006.1 1005.9 0.0
24/01:00pm 16.7 12.6 10.1 65 3.5 WNW 22 28 12 15 1006.3 1006.1 0.0
24/12:30pm 16.9 13.3 10.5 66 3.4 WNW 20 30 11 16 1006.5 1006.3 0.0
24/12:00pm 16.5 13.2 10.8 69 3.1 W 19 24 10 13 1007.1 1006.9 0.0
24/11:30am 17.0 12.5 10.1 64 3.7 WNW 24 28 13 15 1007.4 1007.2 0.0
24/11:00am 17.7 14.2 10.1 61 4.1 WNW 19 24 10 13 1007.2 1007.0 0.0
24/10:30am 16.4 13.3 10.3 67 3.2 NW 17 24 9 13 1007.5 1007.3 0.0
24/10:00am 15.8 12.7 10.3 70 2.9 NW 17 28 9 15 1007.5 1007.3 0.0
24/09:30am 14.9 12.5 10.1 73 2.5 NW 13 19 7 10 1007.6 1007.4 0.0
24/09:00am 14.1 11.7 9.9 76 2.2 NW 13 17 7 9 1007.6 1007.4 0.0
24/08:30am 13.6 11.6 10.0 79 1.9 NW 11 13 6 7 1007.5 1007.3 0.0
24/08:00am 13.5 11.4 9.9 79 1.9 NW 11 17 6 9 1007.4 1007.2 0.0
24/07:30am 12.3 10.2 9.9 85 1.2 NW 11 15 6 8 1007.3 1007.1 0.0
24/07:00am 12.2 9.8 9.9 86 1.2 NW 13 15 7 8 1007.2 1007.0 0.0
24/06:30am 12.3 9.9 9.9 85 1.2 NW 13 17 7 9 1006.9 1006.7 0.0
24/06:00am 12.2 10.1 9.9 86 1.2 NW 11 17 6 9 1006.7 1006.5 0.0
24/05:30am 12.3 9.9 9.9 85 1.2 WNW 13 17 7 9 1007.0 1006.8 0.0
24/05:00am 12.6 10.6 10.0 84 1.3 WNW 11 15 6 8 1006.6 1006.4 0.0
24/04:30am 12.9 10.8 9.9 82 1.5 WNW 11 15 6 8 1006.7 1006.5 0.0
24/04:00am 13.3 10.9 10.1 81 1.7 NW 13 15 7 8 1006.8 1006.6 0.0
24/03:30am 13.7 10.9 10.1 79 1.9 WNW 15 19 8 10 1007.1 1006.9 0.0
24/03:00am 14.3 11.1 9.9 75 2.3 WNW 17 22 9 12 1007.4 1007.2 0.0
24/02:30am 14.7 11.5 10.1 74 2.4 WNW 17 20 9 11 1008.0 1007.8 0.0
24/02:00am 15.3 12.6 10.3 72 2.6 WNW 15 20 8 11 1007.9 1007.7 0.0
24/01:30am 15.5 13.2 10.5 72 2.7 WNW 13 17 7 9 1008.3 1008.1 0.0
24/01:00am 15.6 13.7 10.6 72 2.7 WNW 11 15 6 8 1008.4 1008.2 0.0
24/12:30am 15.6 13.8 10.8 73 2.6 WNW 11 15 6 8 1008.8 1008.6 0.0
24/12:00am 15.6 14.2 11.0 74 2.5 WNW 9 11 5 6 1009.0 1008.8 0.0
 
Date/Time
EST
Temp
°C
App
Temp
°C
Dew
Point
Rel
Hum
%
Delta-T
°C
Wind Press
QNH
hPa
Press
MSL
hPa
Rain
since 9 am
mm
Dir
 
Spd
km/h
Gust
km/h
Spd
kts
Gust
kts
23/11:30pm 16.6 14.8 10.7 68 3.2 WNW 11 13 6 7 1009.2 1009.0 0.0
23/11:00pm 17.2 15.0 10.8 66 3.5 WNW 13 19 7 10 1009.5 1009.4 0.0
23/10:30pm 17.4 14.8 10.8 65 3.6 WNW 15 19 8 10 1009.9 1009.8 0.0
23/10:00pm 17.2 15.1 11.2 68 3.3 NW 13 17 7 9 1010.0 1009.9 0.0
23/09:30pm 16.9 16.0 11.4 70 3.0 WNW 7 7 4 4 1009.7 1009.6 0.0
23/09:00pm 17.5 15.9 11.5 68 3.3 WNW 11 13 6 7 1009.8 1009.7 0.0
23/08:30pm 17.5 15.5 11.5 68 3.3 W 13 15 7 8 1010.1 1010.0 0.0
23/08:00pm 17.1 15.6 11.8 71 2.9 W 11 13 6 7 1010.2 1010.1 0.0
23/07:30pm 18.1 16.5 11.4 65 3.7 W 11 15 6 8 1010.5 1010.4 0.0
23/07:00pm 18.3 16.3 11.6 65 3.7 W 13 17 7 9 1010.4 1010.3 0.0
23/06:30pm 18.1 16.5 11.7 66 3.5 W 11 13 6 7 1010.2 1010.1 0.0
23/06:00pm 18.8 17.6 11.6 63 4.0 WSW 9 11 5 6 1010.4 1010.3 0.0
23/05:30pm 19.7 18.0 11.2 58 4.7 WSW 11 11 6 6 1010.4 1010.3 0.0
23/05:00pm 21.3 18.6 10.2 49 6.1 SW 15 19 8 10 1010.3 1010.2 0.0
23/04:30pm 22.1 18.9 9.9 46 6.6 WSW 17 20 9 11 1010.5 1010.4 0.0

Other Formats:

Comma delimited format used in spreadsheet applications
http://www.bom.gov.au/fwo/IDN60801/IDN60801.95869.axf

JavaScript Object Notation format (JSON) in row-major order
http://www.bom.gov.au/fwo/IDN60801/IDN60801.95869.json